Time;durP1;ratioP1;P1;durP2;ratioP2;P2;SDS_P1;SDS_P2;PMS_P1;PMS_P2;Temp;Humidity;BMP_temperature;BMP_pressure;BME280_temperature;BME280_humidity;BME280_pressure;Samples;Min_cycle;Max_cycle;Signal;HPM_P1;HPM_P2
2021/07/15 00:00:31;;;;;;;19.47;10.27;;;;;;;;;;763676;180;926248;-82
2021/07/15 00:02:57;;;;;;;16.73;11.10;;;;;;;;;;760881;183;1021326;-79
2021/07/15 00:05:22;;;;;;;20.73;9.80;;;;;;;;;;767509;183;916963;-81
2021/07/15 00:07:49;;;;;;;20.60;10.33;;;;;;;;;;762309;183;1019653;-82
2021/07/15 00:10:18;;;;;;;31.07;12.70;;;;;;;;;;760635;183;999302;-82
2021/07/15 00:12:40;;;;;;;32.63;15.23;;;;;;;;;;765330;183;917371;-81
2021/07/15 00:15:06;;;;;;;25.17;15.67;;;;;;;;;;762031;183;918149;-81
2021/07/15 00:17:32;;;;;;;23.37;15.50;;;;;;;;;;762259;183;1020274;-80
2021/07/15 00:19:58;;;;;;;34.10;17.50;;;;;;;;;;765840;183;911356;-81
2021/07/15 00:22:24;;;;;;;28.27;15.43;;;;;;;;;;758173;183;1019617;-82
2021/07/15 00:24:49;;;;;;;27.83;15.87;;;;;;;;;;757359;183;1120082;-79
2021/07/15 00:27:16;;;;;;;33.67;16.92;;;;;;;;;;763289;183;1386684;-79
2021/07/15 00:29:42;;;;;;;46.30;17.27;;;;;;;;;;758192;183;918405;-80
2021/07/15 00:32:08;;;;;;;36.60;14.23;;;;;;;;;;760963;183;1021676;-80
2021/07/15 00:34:35;;;;;;;26.23;13.93;;;;;;;;;;763059;182;930847;-80
2021/07/15 00:37:01;;;;;;;30.83;15.20;;;;;;;;;;767771;182;914359;-81
2021/07/15 00:39:27;;;;;;;22.40;13.25;;;;;;;;;;762321;182;809630;-80
2021/07/15 00:41:52;;;;;;;20.73;13.60;;;;;;;;;;763451;183;918087;-80
2021/07/15 00:44:18;;;;;;;18.80;12.48;;;;;;;;;;768401;182;824553;-80
2021/07/15 00:46:44;;;;;;;26.52;14.98;;;;;;;;;;761710;182;1020452;-81
2021/07/15 00:49:10;;;;;;;28.67;15.40;;;;;;;;;;764373;182;1019092;-80
2021/07/15 00:51:36;;;;;;;21.00;13.97;;;;;;;;;;764664;182;1021923;-80
2021/07/15 00:54:02;;;;;;;27.93;14.27;;;;;;;;;;760463;183;924070;-79
2021/07/15 00:56:28;;;;;;;25.20;13.70;;;;;;;;;;761306;182;883586;-80
2021/07/15 00:58:53;;;;;;;31.70;14.13;;;;;;;;;;763047;183;920411;-80
2021/07/15 01:01:19;;;;;;;22.57;14.93;;;;;;;;;;766229;183;920198;-80
2021/07/15 01:03:45;;;;;;;21.80;14.73;;;;;;;;;;762478;183;914914;-80
2021/07/15 01:06:11;;;;;;;27.33;13.23;;;;;;;;;;761228;183;912047;-80
2021/07/15 01:08:37;;;;;;;28.23;11.43;;;;;;;;;;765257;183;929126;-79
2021/07/15 01:11:06;;;;;;;21.37;12.43;;;;;;;;;;761350;183;700963;-80
2021/07/15 01:13:37;;;;;;;24.07;13.47;;;;;;;;;;755359;183;917871;-80
2021/07/15 01:16:19;;;;;;;34.07;14.57;;;;;;;;;;760329;183;1025753;-79
2021/07/15 01:18:45;;;;;;;24.37;12.60;;;;;;;;;;758263;183;928622;-81
2021/07/15 01:21:17;;;;;;;30.03;12.23;;;;;;;;;;766588;183;917737;-81
2021/07/15 01:23:43;;;;;;;30.27;11.90;;;;;;;;;;761063;183;916686;-81
2021/07/15 01:26:25;;;;;;;41.07;13.37;;;;;;;;;;758905;183;925007;-80
2021/07/15 01:28:52;;;;;;;29.10;13.33;;;;;;;;;;758495;183;916710;-80
2021/07/15 01:31:18;;;;;;;26.73;13.57;;;;;;;;;;761767;181;814997;-80
2021/07/15 01:33:44;;;;;;;42.00;14.33;;;;;;;;;;767416;181;1019345;-80
2021/07/15 01:36:10;;;;;;;20.40;11.77;;;;;;;;;;760562;183;882632;-80
2021/07/15 01:38:36;;;;;;;36.37;13.33;;;;;;;;;;761061;183;916808;-81
2021/07/15 01:41:01;;;;;;;24.40;11.87;;;;;;;;;;765566;183;916695;-80
2021/07/15 01:43:27;;;;;;;23.03;13.37;;;;;;;;;;758421;183;1210121;-80
2021/07/15 01:45:53;;;;;;;20.73;11.47;;;;;;;;;;760721;182;973845;-79
2021/07/15 01:48:19;;;;;;;25.20;11.97;;;;;;;;;;768768;182;814818;-79
2021/07/15 01:50:45;;;;;;;21.52;11.40;;;;;;;;;;761616;182;917688;-79
2021/07/15 01:53:11;;;;;;;32.00;13.40;;;;;;;;;;762331;183;918454;-80
2021/07/15 01:55:36;;;;;;;23.60;11.67;;;;;;;;;;766377;182;816691;-80
2021/07/15 01:58:03;;;;;;;26.80;14.03;;;;;;;;;;761865;182;915938;-80
2021/07/15 02:00:28;;;;;;;31.53;12.73;;;;;;;;;;763076;180;919556;-80
2021/07/15 02:02:54;;;;;;;20.10;12.30;;;;;;;;;;762325;183;902659;-79
2021/07/15 02:05:20;;;;;;;26.53;14.20;;;;;;;;;;765192;183;816003;-79
2021/07/15 02:07:46;;;;;;;24.67;12.80;;;;;;;;;;761585;183;998129;-79
2021/07/15 02:10:12;;;;;;;32.10;13.20;;;;;;;;;;758728;183;920655;-78
2021/07/15 02:12:38;;;;;;;37.10;14.50;;;;;;;;;;763146;183;1019088;-79
2021/07/15 02:15:04;;;;;;;30.10;13.90;;;;;;;;;;762570;183;917746;-79
2021/07/15 02:17:30;;;;;;;31.07;13.20;;;;;;;;;;765144;183;918755;-79
2021/07/15 02:19:56;;;;;;;38.77;14.90;;;;;;;;;;765431;183;919405;-79
2021/07/15 02:22:22;;;;;;;36.97;14.50;;;;;;;;;;757344;183;1596072;-79
2021/07/15 02:24:47;;;;;;;26.17;13.20;;;;;;;;;;760426;183;913842;-79
2021/07/15 02:27:13;;;;;;;40.70;13.90;;;;;;;;;;761352;183;915158;-80
2021/07/15 02:29:39;;;;;;;34.30;13.60;;;;;;;;;;762085;183;920613;-79
2021/07/15 02:32:06;;;;;;;24.50;13.00;;;;;;;;;;761860;183;918214;-79
2021/07/15 02:34:32;;;;;;;29.57;12.47;;;;;;;;;;760313;183;918403;-79
2021/07/15 02:36:58;;;;;;;26.30;12.93;;;;;;;;;;766295;183;802798;-78
2021/07/15 02:39:24;;;;;;;28.30;14.33;;;;;;;;;;759441;183;918378;-78
2021/07/15 02:41:50;;;;;;;29.93;14.10;;;;;;;;;;761335;183;929468;-79
2021/07/15 02:44:15;;;;;;;23.03;13.27;;;;;;;;;;764964;183;920623;-79
2021/07/15 02:46:41;;;;;;;25.33;14.00;;;;;;;;;;761025;183;918149;-78
2021/07/15 02:49:07;;;;;;;28.10;13.90;;;;;;;;;;760138;183;917731;-78
2021/07/15 02:51:34;;;;;;;22.48;14.60;;;;;;;;;;764830;183;919820;-75
2021/07/15 02:53:59;;;;;;;29.97;13.93;;;;;;;;;;759806;183;1015292;-78
2021/07/15 02:56:28;;;;;;;47.77;15.67;;;;;;;;;;759552;183;1021081;-78
2021/07/15 02:58:57;;;;;;;40.50;15.47;;;;;;;;;;762539;182;906320;-79
2021/07/15 03:01:23;;;;;;;34.07;17.47;;;;;;;;;;770956;182;816376;-78
2021/07/15 03:03:53;;;;;;;36.47;18.30;;;;;;;;;;763407;182;821437;-78
2021/07/15 03:06:24;;;;;;;44.57;19.37;;;;;;;;;;763490;182;911342;-78
2021/07/15 03:08:50;;;;;;;27.03;19.13;;;;;;;;;;761155;183;916693;-79
2021/07/15 03:11:16;;;;;;;33.80;20.47;;;;;;;;;;765193;183;918774;-76
2021/07/15 03:13:42;;;;;;;37.47;20.33;;;;;;;;;;762792;182;818559;-77
2021/07/15 03:16:08;;;;;;;37.53;19.37;;;;;;;;;;761061;183;917662;-76
2021/07/15 03:18:34;;;;;;;29.63;18.60;;;;;;;;;;768449;183;812354;-77
2021/07/15 03:20:59;;;;;;;32.00;21.17;;;;;;;;;;761017;183;919245;-77
2021/07/15 03:23:25;;;;;;;34.20;19.50;;;;;;;;;;758136;183;1022353;-77
2021/07/15 03:25:51;;;;;;;42.70;19.12;;;;;;;;;;761509;183;918329;-76
2021/07/15 03:28:17;;;;;;;31.43;19.20;;;;;;;;;;767688;181;906195;-76
2021/07/15 03:30:43;;;;;;;37.30;21.60;;;;;;;;;;757967;180;919799;-75
2021/07/15 03:33:09;;;;;;;35.00;20.10;;;;;;;;;;759899;183;920405;-77
2021/07/15 03:35:35;;;;;;;30.40;20.83;;;;;;;;;;762252;183;1020475;-76
2021/07/15 03:38:00;;;;;;;33.03;19.35;;;;;;;;;;761571;183;920638;-76
2021/07/15 03:40:26;;;;;;;47.20;19.07;;;;;;;;;;755809;183;919102;-77
2021/07/15 03:42:52;;;;;;;28.87;18.47;;;;;;;;;;765704;183;912822;-75
2021/07/15 03:45:18;;;;;;;33.80;16.80;;;;;;;;;;762492;183;914939;-76
2021/07/15 03:47:47;;;;;;;33.10;17.40;;;;;;;;;;759216;183;972225;-76
2021/07/15 03:50:12;;;;;;;33.00;15.50;;;;;;;;;;761405;183;916638;-76
2021/07/15 03:52:39;;;;;;;26.37;15.90;;;;;;;;;;757083;183;915714;-76
2021/07/15 03:55:05;;;;;;;35.90;17.53;;;;;;;;;;756395;184;916072;-75
2021/07/15 03:57:30;;;;;;;41.43;16.33;;;;;;;;;;759400;183;935640;-75
2021/07/15 03:59:56;;;;;;;30.70;17.90;;;;;;;;;;764508;183;918967;-76
2021/07/15 04:02:22;;;;;;;32.60;17.53;;;;;;;;;;761101;183;920595;-76
2021/07/15 04:04:49;;;;;;;28.47;17.67;;;;;;;;;;760129;183;928336;-76
2021/07/15 04:07:15;;;;;;;26.37;16.70;;;;;;;;;;765034;183;917356;-76
2021/07/15 04:09:40;;;;;;;31.47;17.70;;;;;;;;;;761381;182;919216;-75
2021/07/15 04:12:06;;;;;;;26.73;16.77;;;;;;;;;;765033;182;919304;-75
2021/07/15 04:14:32;;;;;;;39.83;17.30;;;;;;;;;;764062;182;918385;-75
2021/07/15 04:17:00;;;;;;;32.07;17.90;;;;;;;;;;765921;183;618602;-75
2021/07/15 04:19:26;;;;;;;26.87;14.57;;;;;;;;;;756432;184;622339;-76
2021/07/15 04:21:54;;;;;;;31.37;16.10;;;;;;;;;;760480;183;634586;-76
2021/07/15 04:24:17;;;;;;;35.70;16.07;;;;;;;;;;759820;184;918961;-77
2021/07/15 04:26:43;;;;;;;44.33;19.43;;;;;;;;;;749014;184;921313;-76
2021/07/15 04:29:09;;;;;;;36.53;16.50;;;;;;;;;;735092;190;918944;-77
2021/07/15 04:31:38;;;;;;;40.90;18.03;;;;;;;;;;765448;183;939261;-77
2021/07/15 04:34:06;;;;;;;39.67;16.98;;;;;;;;;;760391;182;919226;-77
2021/07/15 04:36:32;;;;;;;38.97;18.33;;;;;;;;;;763675;183;918521;-77
2021/07/15 04:38:58;;;;;;;49.00;20.93;;;;;;;;;;759674;183;918619;-78
2021/07/15 04:41:24;;;;;;;54.87;24.93;;;;;;;;;;763934;183;917806;-76
2021/07/15 04:43:50;;;;;;;61.73;28.20;;;;;;;;;;761765;183;921292;-77
2021/07/15 04:46:16;;;;;;;76.47;27.67;;;;;;;;;;759399;183;917726;-78
2021/07/15 04:48:42;;;;;;;75.33;29.03;;;;;;;;;;765553;183;916555;-78
2021/07/15 04:51:13;;;;;;;56.97;23.23;;;;;;;;;;761060;183;912199;-77
2021/07/15 04:53:34;;;;;;;47.47;20.53;;;;;;;;;;760963;183;918120;-77
2021/07/15 04:55:59;;;;;;;38.80;20.93;;;;;;;;;;765836;180;917367;-78
2021/07/15 04:58:25;;;;;;;43.10;17.07;;;;;;;;;;759946;183;897723;-78
2021/07/15 05:00:51;;;;;;;36.27;18.00;;;;;;;;;;760450;181;997479;-80
2021/07/15 05:03:20;;;;;;;32.33;16.60;;;;;;;;;;759030;183;1023641;-77
2021/07/15 05:05:46;;;;;;;28.30;15.67;;;;;;;;;;755939;184;921681;-79
2021/07/15 05:08:11;;;;;;;30.03;16.10;;;;;;;;;;758975;183;950012;-77
2021/07/15 05:10:37;;;;;;;38.90;16.07;;;;;;;;;;760126;183;896373;-78
2021/07/15 05:13:03;;;;;;;42.40;15.57;;;;;;;;;;767471;183;815913;-79
2021/07/15 05:15:29;;;;;;;31.70;14.10;;;;;;;;;;761323;183;919590;-79
2021/07/15 05:17:55;;;;;;;30.60;13.90;;;;;;;;;;754030;183;2106906;-80
2021/07/15 05:20:21;;;;;;;27.97;13.40;;;;;;;;;;768389;182;796523;-81
2021/07/15 05:22:47;;;;;;;27.80;12.90;;;;;;;;;;763454;182;903298;-77
2021/07/15 05:25:12;;;;;;;35.00;15.00;;;;;;;;;;761032;182;919211;-80
2021/07/15 05:27:38;;;;;;;34.73;14.40;;;;;;;;;;762924;182;906916;-75
2021/07/15 05:30:05;;;;;;;23.70;12.87;;;;;;;;;;765678;181;918804;-78
2021/07/15 05:32:30;;;;;;;33.60;14.30;;;;;;;;;;761256;182;916750;-79
2021/07/15 05:34:57;;;;;;;38.17;17.43;;;;;;;;;;761185;182;916199;-79
2021/07/15 05:37:22;;;;;;;33.07;14.23;;;;;;;;;;767734;183;814011;-77
2021/07/15 05:39:48;;;;;;;25.50;13.23;;;;;;;;;;764523;183;869073;-75
2021/07/15 05:42:14;;;;;;;34.60;13.73;;;;;;;;;;761341;183;1324102;-80
2021/07/15 05:44:40;;;;;;;26.97;12.90;;;;;;;;;;768648;183;621418;-79
2021/07/15 05:47:07;;;;;;;25.47;13.80;;;;;;;;;;753616;182;1631516;-84
2021/07/15 05:49:31;;;;;;;23.27;11.50;;;;;;;;;;760703;183;917537;-78
2021/07/15 05:51:57;;;;;;;18.57;10.33;;;;;;;;;;760919;182;812938;-78
2021/07/15 05:54:25;;;;;;;32.77;12.30;;;;;;;;;;762960;183;638473;-79
2021/07/15 05:56:49;;;;;;;22.10;11.73;;;;;;;;;;760116;183;918459;-80
2021/07/15 05:59:15;;;;;;;13.90;9.20;;;;;;;;;;759552;183;1022459;-79
2021/07/15 06:01:41;;;;;;;21.30;10.77;;;;;;;;;;758823;184;882600;-80
2021/07/15 06:04:06;;;;;;;16.07;10.13;;;;;;;;;;761771;183;923565;-80
2021/07/15 06:06:32;;;;;;;14.43;8.23;;;;;;;;;;762443;183;920283;-77
2021/07/15 06:08:58;;;;;;;15.90;8.53;;;;;;;;;;764536;183;924421;-79
2021/07/15 06:11:24;;;;;;;10.80;9.23;;;;;;;;;;760272;183;918161;-80
2021/07/15 06:13:50;;;;;;;10.90;7.83;;;;;;;;;;760410;183;919415;-84
2021/07/15 06:16:16;;;;;;;11.10;7.87;;;;;;;;;;766759;183;817743;-78
2021/07/15 06:18:42;;;;;;;12.50;8.20;;;;;;;;;;760817;183;898061;-81
2021/07/15 06:21:07;;;;;;;12.10;7.83;;;;;;;;;;757855;183;1103517;-78
2021/07/15 06:23:33;;;;;;;18.87;7.70;;;;;;;;;;760602;183;935110;-79
2021/07/15 06:25:59;;;;;;;8.33;6.43;;;;;;;;;;769210;183;1020797;-81
2021/07/15 06:28:25;;;;;;;9.63;5.20;;;;;;;;;;759086;183;1119298;-82
2021/07/15 06:30:51;;;;;;;11.10;5.27;;;;;;;;;;762396;183;967365;-85
2021/07/15 06:33:17;;;;;;;6.63;5.10;;;;;;;;;;767933;182;1009299;-80
2021/07/15 06:35:45;;;;;;;12.40;6.60;;;;;;;;;;762834;181;915677;-84
2021/07/15 06:38:09;;;;;;;8.77;5.90;;;;;;;;;;762705;183;916515;-81
2021/07/15 06:40:35;;;;;;;12.00;6.50;;;;;;;;;;767989;183;670374;-82
2021/07/15 06:43:01;;;;;;;19.23;6.17;;;;;;;;;;760781;182;886483;-87
2021/07/15 06:45:26;;;;;;;18.83;6.40;;;;;;;;;;762315;182;862425;-87
2021/07/15 06:47:52;;;;;;;6.93;5.03;;;;;;;;;;763457;182;644865;-82
2021/07/15 06:50:18;;;;;;;16.63;6.30;;;;;;;;;;762995;182;1018272;-85
2021/07/15 06:52:44;;;;;;;6.68;5.28;;;;;;;;;;761161;183;933773;-83
2021/07/15 06:55:10;;;;;;;10.57;5.40;;;;;;;;;;761250;183;918040;-83
2021/07/15 06:57:36;;;;;;;6.70;5.60;;;;;;;;;;768321;183;815438;-87
2021/07/15 07:00:02;;;;;;;8.00;5.47;;;;;;;;;;764778;183;918876;-85
2021/07/15 07:02:27;;;;;;;6.37;4.63;;;;;;;;;;766440;183;827336;-85
2021/07/15 07:04:54;;;;;;;4.70;4.03;;;;;;;;;;768312;183;646098;-87
2021/07/15 07:07:19;;;;;;;7.83;4.27;;;;;;;;;;756906;183;1024180;-81
2021/07/15 07:09:45;;;;;;;5.80;4.00;;;;;;;;;;762823;183;906909;-83
2021/07/15 07:12:11;;;;;;;7.63;4.90;;;;;;;;;;767603;182;672144;-85
2021/07/15 07:14:37;;;;;;;11.00;5.47;;;;;;;;;;763007;183;1001589;-82
2021/07/15 07:17:03;;;;;;;8.37;4.73;;;;;;;;;;764180;183;654241;-84
2021/07/15 07:19:28;;;;;;;8.97;5.03;;;;;;;;;;763974;183;715957;-82
2021/07/15 07:21:54;;;;;;;9.83;5.57;;;;;;;;;;764171;183;893001;-88
2021/07/15 07:24:21;;;;;;;10.20;6.00;;;;;;;;;;765448;183;658721;-86
2021/07/15 07:26:46;;;;;;;7.80;5.55;;;;;;;;;;759676;183;1019036;-85
2021/07/15 07:29:12;;;;;;;12.13;5.53;;;;;;;;;;767303;183;870989;-85
2021/07/15 07:31:38;;;;;;;8.93;5.20;;;;;;;;;;763741;183;656859;-83
2021/07/15 07:34:04;;;;;;;8.23;5.13;;;;;;;;;;760702;183;1020310;-82
2021/07/15 07:36:30;;;;;;;8.60;5.50;;;;;;;;;;771232;182;706503;-83
2021/07/15 07:38:56;;;;;;;8.40;6.27;;;;;;;;;;762515;183;1004912;-84
2021/07/15 07:41:22;;;;;;;8.57;6.70;;;;;;;;;;761045;182;914320;-83
2021/07/15 07:43:48;;;;;;;17.12;6.00;;;;;;;;;;761144;182;923738;-83
2021/07/15 07:46:14;;;;;;;8.93;6.50;;;;;;;;;;760520;181;926670;-85
2021/07/15 07:48:39;;;;;;;14.50;5.93;;;;;;;;;;762386;182;918071;-82
2021/07/15 07:51:05;;;;;;;7.30;5.63;;;;;;;;;;762151;182;918780;-81
2021/07/15 07:53:31;;;;;;;12.13;5.53;;;;;;;;;;766552;183;919004;-82
2021/07/15 07:55:57;;;;;;;6.57;5.63;;;;;;;;;;762395;182;975678;-84
2021/07/15 07:58:23;;;;;;;8.83;6.30;;;;;;;;;;761735;182;1020287;-81
2021/07/15 08:00:49;;;;;;;9.10;5.50;;;;;;;;;;768656;183;918520;-79
2021/07/15 08:03:17;;;;;;;7.23;5.10;;;;;;;;;;768070;183;919491;-81
2021/07/15 08:05:42;;;;;;;8.10;5.60;;;;;;;;;;763176;183;918572;-81
2021/07/15 08:08:06;;;;;;;5.60;4.50;;;;;;;;;;766012;183;764547;-82
2021/07/15 08:10:32;;;;;;;7.13;5.03;;;;;;;;;;764993;182;1064454;-83
2021/07/15 08:12:58;;;;;;;8.90;5.83;;;;;;;;;;763002;183;917785;-80
2021/07/15 08:15:24;;;;;;;9.13;5.97;;;;;;;;;;759859;182;928489;-80
2021/07/15 08:17:50;;;;;;;6.80;5.43;;;;;;;;;;762555;183;1016272;-81
2021/07/15 08:20:16;;;;;;;9.10;5.00;;;;;;;;;;760653;183;918701;-82
2021/07/15 08:22:41;;;;;;;8.00;6.60;;;;;;;;;;759043;183;1021344;-80
2021/07/15 08:25:08;;;;;;;8.03;5.33;;;;;;;;;;764471;183;917438;-79
2021/07/15 08:27:34;;;;;;;7.80;5.37;;;;;;;;;;761132;183;1021179;-78
2021/07/15 08:29:59;;;;;;;10.53;6.33;;;;;;;;;;760326;183;917583;-80
2021/07/15 08:32:26;;;;;;;6.23;5.27;;;;;;;;;;766218;183;903293;-78
2021/07/15 08:34:52;;;;;;;9.60;6.30;;;;;;;;;;763311;183;815763;-81
2021/07/15 08:37:18;;;;;;;7.33;5.93;;;;;;;;;;759616;183;918929;-75
2021/07/15 08:39:43;;;;;;;10.10;6.70;;;;;;;;;;761171;183;876425;-78
2021/07/15 08:42:09;;;;;;;9.47;5.60;;;;;;;;;;763253;183;814813;-79
2021/07/15 08:44:35;;;;;;;12.93;6.90;;;;;;;;;;760827;183;918020;-77
2021/07/15 08:47:01;;;;;;;12.85;6.03;;;;;;;;;;759004;180;1020142;-78
2021/07/15 08:49:27;;;;;;;11.87;7.50;;;;;;;;;;767377;183;815766;-78
2021/07/15 08:51:53;;;;;;;13.03;6.47;;;;;;;;;;763002;182;766493;-80
2021/07/15 08:54:18;;;;;;;8.95;6.07;;;;;;;;;;761817;183;919403;-77
2021/07/15 08:56:44;;;;;;;8.23;5.70;;;;;;;;;;766858;182;712839;-80
2021/07/15 08:59:12;;;;;;;10.57;6.50;;;;;;;;;;763712;182;816066;-74
2021/07/15 09:01:37;;;;;;;6.83;6.10;;;;;;;;;;761354;182;918556;-76
2021/07/15 09:04:03;;;;;;;13.03;5.73;;;;;;;;;;764296;182;815961;-75
2021/07/15 09:06:29;;;;;;;12.03;6.63;;;;;;;;;;764994;183;816005;-75
2021/07/15 09:08:54;;;;;;;9.37;6.03;;;;;;;;;;762383;182;919585;-76
2021/07/15 09:11:20;;;;;;;8.70;6.07;;;;;;;;;;763415;182;815251;-76
2021/07/15 09:13:46;;;;;;;8.70;6.30;;;;;;;;;;767251;182;918848;-76
2021/07/15 09:16:12;;;;;;;12.53;7.27;;;;;;;;;;760688;183;1021312;-76
2021/07/15 09:18:44;;;;;;;8.10;6.80;;;;;;;;;;761309;183;918080;-76
2021/07/15 09:21:15;;;;;;;8.80;5.67;;;;;;;;;;769086;183;744309;-73
2021/07/15 09:23:41;;;;;;;9.33;6.20;;;;;;;;;;766012;183;918950;-75
2021/07/15 09:26:07;;;;;;;7.60;5.10;;;;;;;;;;760854;183;916707;-75
2021/07/15 09:28:33;;;;;;;7.68;6.68;;;;;;;;;;760265;183;919087;-76
2021/07/15 09:30:58;;;;;;;8.63;6.67;;;;;;;;;;764012;183;816482;-74
2021/07/15 09:33:25;;;;;;;11.30;6.03;;;;;;;;;;761469;183;829980;-77
2021/07/15 09:35:50;;;;;;;11.10;6.27;;;;;;;;;;759875;183;918858;-74
2021/07/15 09:38:17;;;;;;;9.77;6.20;;;;;;;;;;756566;184;713964;-78
2021/07/15 09:40:43;;;;;;;9.93;6.77;;;;;;;;;;748974;184;915222;-75
2021/07/15 09:43:11;;;;;;;10.90;8.00;;;;;;;;;;759896;183;911806;-73
2021/07/15 09:45:36;;;;;;;13.95;8.13;;;;;;;;;;760184;182;922247;-75
2021/07/15 09:48:02;;;;;;;9.60;7.70;;;;;;;;;;766940;183;812975;-74
2021/07/15 09:50:28;;;;;;;8.93;7.83;;;;;;;;;;759857;183;942525;-72
2021/07/15 09:52:54;;;;;;;10.73;8.37;;;;;;;;;;760340;183;946799;-75
2021/07/15 09:55:21;;;;;;;19.43;8.90;;;;;;;;;;765121;183;827375;-74
2021/07/15 09:57:47;;;;;;;12.83;7.33;;;;;;;;;;760334;183;923708;-76
2021/07/15 10:00:13;;;;;;;10.57;7.53;;;;;;;;;;750969;183;921497;-73
2021/07/15 10:02:39;;;;;;;11.93;7.43;;;;;;;;;;765107;183;913656;-74
2021/07/15 10:05:05;;;;;;;13.37;9.50;;;;;;;;;;755573;184;919030;-75
2021/07/15 10:07:31;;;;;;;13.57;8.90;;;;;;;;;;757642;183;819941;-71
2021/07/15 10:10:03;;;;;;;10.13;8.03;;;;;;;;;;762227;182;919339;-72
2021/07/15 10:12:28;;;;;;;10.53;9.40;;;;;;;;;;766722;182;817177;-74
2021/07/15 10:14:54;;;;;;;20.17;9.63;;;;;;;;;;762860;182;918688;-74
2021/07/15 10:17:35;;;;;;;18.63;8.30;;;;;;;;;;761227;182;908365;-75
2021/07/15 10:20:07;;;;;;;17.13;9.20;;;;;;;;;;761177;182;917620;-76
2021/07/15 10:22:33;;;;;;;10.57;8.60;;;;;;;;;;762177;182;904226;-73
2021/07/15 10:24:58;;;;;;;16.67;7.90;;;;;;;;;;766161;182;914509;-77
2021/07/15 10:27:24;;;;;;;15.57;9.10;;;;;;;;;;758831;183;919348;-75
2021/07/15 10:29:50;;;;;;;14.10;9.30;;;;;;;;;;760414;183;919143;-73
2021/07/15 10:32:16;;;;;;;12.03;8.03;;;;;;;;;;764979;183;813441;-76
2021/07/15 10:34:44;;;;;;;10.93;7.95;;;;;;;;;;766365;183;816475;-76
2021/07/15 10:37:08;;;;;;;12.07;7.50;;;;;;;;;;761149;183;817238;-75
2021/07/15 10:39:33;;;;;;;10.45;8.50;;;;;;;;;;765845;183;817086;-75
2021/07/15 10:42:00;;;;;;;12.57;7.50;;;;;;;;;;761281;183;817263;-76
2021/07/15 10:44:26;;;;;;;10.70;7.60;;;;;;;;;;760724;183;816523;-75
2021/07/15 10:46:52;;;;;;;10.67;7.07;;;;;;;;;;756778;182;920561;-73
2021/07/15 10:49:18;;;;;;;11.60;8.00;;;;;;;;;;761019;183;904406;-77
2021/07/15 10:51:43;;;;;;;10.50;8.23;;;;;;;;;;760995;183;919385;-76
2021/07/15 10:54:09;;;;;;;15.33;7.80;;;;;;;;;;762044;183;918462;-75
2021/07/15 10:56:35;;;;;;;12.93;8.33;;;;;;;;;;765289;183;918553;-74
2021/07/15 10:59:01;;;;;;;11.87;8.80;;;;;;;;;;760050;183;919259;-74
2021/07/15 11:01:43;;;;;;;10.33;7.10;;;;;;;;;;760623;183;918905;-76
2021/07/15 11:04:09;;;;;;;13.63;7.13;;;;;;;;;;764430;183;918971;-75
2021/07/15 11:06:37;;;;;;;12.80;8.30;;;;;;;;;;764916;183;817315;-77
2021/07/15 11:09:03;;;;;;;8.67;7.00;;;;;;;;;;761769;183;816917;-76
2021/07/15 11:11:32;;;;;;;13.53;7.80;;;;;;;;;;760029;183;919259;-75
2021/07/15 11:13:58;;;;;;;8.73;7.40;;;;;;;;;;761835;183;918955;-76
2021/07/15 11:16:38;;;;;;;11.00;7.20;;;;;;;;;;767482;183;872675;-75
2021/07/15 11:19:07;;;;;;;13.00;6.80;;;;;;;;;;769700;180;691943;-75
2021/07/15 11:21:30;;;;;;;11.73;7.87;;;;;;;;;;757626;182;1635761;-73
2021/07/15 11:24:02;;;;;;;12.60;8.07;;;;;;;;;;761417;183;917871;-76
2021/07/15 11:26:28;;;;;;;10.17;7.40;;;;;;;;;;765626;182;817726;-76
2021/07/15 11:28:54;;;;;;;11.10;7.30;;;;;;;;;;762178;182;914694;-73
2021/07/15 11:31:25;;;;;;;12.50;7.83;;;;;;;;;;759046;182;919171;-74
2021/07/15 11:33:51;;;;;;;12.82;6.95;;;;;;;;;;763034;182;827310;-73
2021/07/15 11:36:22;;;;;;;12.10;6.53;;;;;;;;;;766826;183;817212;-75
2021/07/15 11:38:53;;;;;;;11.40;7.67;;;;;;;;;;760590;183;915511;-73
2021/07/15 11:41:20;;;;;;;13.27;7.17;;;;;;;;;;759020;183;919232;-72
2021/07/15 11:43:56;;;;;;;7.70;5.40;;;;;;;;;;759489;183;916316;-72
2021/07/15 11:46:22;;;;;;;14.97;8.20;;;;;;;;;;766119;183;869112;-77
2021/07/15 11:48:48;;;;;;;13.30;7.03;;;;;;;;;;760292;183;915542;-76
2021/07/15 11:51:19;;;;;;;8.97;6.57;;;;;;;;;;762581;183;880476;-73
2021/07/15 11:53:45;;;;;;;9.00;7.80;;;;;;;;;;760502;183;915091;-71
2021/07/15 11:56:11;;;;;;;9.13;7.00;;;;;;;;;;757320;180;1970062;-70
2021/07/15 11:58:43;;;;;;;14.00;6.77;;;;;;;;;;757843;183;914475;-71
2021/07/15 12:01:15;;;;;;;7.90;6.83;;;;;;;;;;757050;183;1336414;-71
2021/07/15 12:03:46;;;;;;;13.77;6.57;;;;;;;;;;758715;183;1021247;-71
2021/07/15 12:06:12;;;;;;;8.87;6.00;;;;;;;;;;763554;183;1105450;-72
2021/07/15 12:08:38;;;;;;;10.00;5.40;;;;;;;;;;759128;183;921255;-69
2021/07/15 12:11:05;;;;;;;7.00;6.23;;;;;;;;;;759543;183;1201073;-70
2021/07/15 12:13:31;;;;;;;11.70;6.70;;;;;;;;;;758514;183;1120181;-71
2021/07/15 12:15:57;;;;;;;11.07;6.17;;;;;;;;;;763679;183;1159936;-72
2021/07/15 12:18:23;;;;;;;12.03;7.70;;;;;;;;;;758137;183;1213848;-72
2021/07/15 12:20:49;;;;;;;8.33;5.80;;;;;;;;;;758159;183;980067;-73
2021/07/15 12:23:15;;;;;;;12.67;5.87;;;;;;;;;;766465;183;917821;-73
2021/07/15 12:25:41;;;;;;;8.40;7.00;;;;;;;;;;760512;182;869561;-73
2021/07/15 12:28:08;;;;;;;11.60;6.17;;;;;;;;;;758874;183;934045;-73
2021/07/15 12:30:37;;;;;;;7.47;5.10;;;;;;;;;;765607;182;904221;-74
2021/07/15 12:33:03;;;;;;;13.30;6.60;;;;;;;;;;762577;183;940078;-71
2021/07/15 12:35:29;;;;;;;6.60;5.90;;;;;;;;;;763991;183;1047447;-76
2021/07/15 12:37:55;;;;;;;7.73;5.53;;;;;;;;;;763227;182;918604;-75
2021/07/15 12:40:29;;;;;;;7.17;5.40;;;;;;;;;;766122;182;919364;-75
2021/07/15 12:43:13;;;;;;;7.60;5.60;;;;;;;;;;766081;183;935957;-72
2021/07/15 12:45:39;;;;;;;13.87;6.10;;;;;;;;;;765961;183;870373;-77
2021/07/15 12:48:07;;;;;;;7.33;5.80;;;;;;;;;;758174;183;1023840;-74
2021/07/15 12:50:31;;;;;;;7.45;5.43;;;;;;;;;;759228;183;921437;-74
2021/07/15 12:53:03;;;;;;;8.97;5.70;;;;;;;;;;766568;183;922061;-73
2021/07/15 12:55:29;;;;;;;7.63;4.97;;;;;;;;;;760540;183;918720;-72
2021/07/15 12:57:55;;;;;;;7.00;5.20;;;;;;;;;;761627;183;918749;-73
2021/07/15 13:00:21;;;;;;;6.70;4.90;;;;;;;;;;759985;183;1017921;-72
2021/07/15 13:02:46;;;;;;;10.90;5.23;;;;;;;;;;756015;183;1023052;-74
2021/07/15 13:05:20;;;;;;;9.33;5.23;;;;;;;;;;762384;182;918982;-72
2021/07/15 13:07:46;;;;;;;9.90;5.32;;;;;;;;;;763006;183;914342;-72
2021/07/15 13:10:22;;;;;;;7.50;5.07;;;;;;;;;;765557;183;919259;-72
2021/07/15 13:15:14;;;;;;;8.80;5.67;;;;;;;;;;759105;183;884989;-72
2021/07/15 13:17:39;;;;;;;8.90;4.60;;;;;;;;;;759049;183;919775;-72
2021/07/15 13:20:09;;;;;;;8.63;4.70;;;;;;;;;;762128;182;916925;-72
2021/07/15 13:22:35;;;;;;;6.43;4.73;;;;;;;;;;759399;183;917406;-71
2021/07/15 13:25:01;;;;;;;7.33;4.83;;;;;;;;;;758645;183;917771;-69
2021/07/15 13:27:26;;;;;;;7.20;4.93;;;;;;;;;;759814;183;915396;-71
2021/07/15 13:29:52;;;;;;;7.67;4.90;;;;;;;;;;764307;183;925284;-72
2021/07/15 13:32:18;;;;;;;13.10;5.03;;;;;;;;;;763195;183;932526;-71
2021/07/15 13:34:44;;;;;;;8.50;4.27;;;;;;;;;;758551;184;921333;-73
2021/07/15 13:37:11;;;;;;;5.97;4.40;;;;;;;;;;764922;183;917960;-72
2021/07/15 13:39:35;;;;;;;7.10;4.33;;;;;;;;;;759852;183;919662;-72
2021/07/15 13:42:01;;;;;;;5.37;4.27;;;;;;;;;;760550;182;917252;-73
2021/07/15 13:44:27;;;;;;;7.17;4.50;;;;;;;;;;765672;182;917719;-71
2021/07/15 13:46:57;;;;;;;8.10;4.57;;;;;;;;;;761569;182;913634;-71
2021/07/15 13:49:23;;;;;;;7.57;4.93;;;;;;;;;;760316;182;1015478;-73
2021/07/15 13:51:48;;;;;;;8.80;4.80;;;;;;;;;;760306;182;953008;-72
2021/07/15 13:54:14;;;;;;;5.20;4.63;;;;;;;;;;767576;182;915000;-71
2021/07/15 13:56:40;;;;;;;14.40;4.90;;;;;;;;;;760818;180;940468;-72
2021/07/15 13:59:06;;;;;;;4.60;3.47;;;;;;;;;;760281;182;905672;-71
2021/07/15 14:01:32;;;;;;;7.20;4.37;;;;;;;;;;763932;183;918804;-70
2021/07/15 14:03:58;;;;;;;7.13;5.20;;;;;;;;;;760007;183;919759;-70
2021/07/15 14:06:24;;;;;;;6.33;5.20;;;;;;;;;;761656;183;1021899;-71
2021/07/15 14:08:55;;;;;;;6.93;3.93;;;;;;;;;;766961;183;919282;-71
2021/07/15 14:11:21;;;;;;;6.40;4.50;;;;;;;;;;766639;183;1020644;-69